Time;durP1;ratioP1;P1;durP2;ratioP2;P2;SDS_P1;SDS_P2;PMS_P1;PMS_P2;Temp;Humidity;BMP_temperature;BMP_pressure;BME280_temperature;BME280_humidity;BME280_pressure;Samples;Min_cycle;Max_cycle;Signal;HPM_P1;HPM_P2
2022/07/05 11:09:07;;;;;;;3.33;0.70;;;19.30;99.90;;;;;;6321379;22;20026;-91
2022/07/05 11:11:41;;;;;;;2.88;0.73;;;19.20;99.90;;;;;;6302363;22;20093;-84
2022/07/05 11:14:25;;;;;;;5.35;1.00;;;19.10;99.90;;;;;;6278806;22;20076;-84
2022/07/05 11:17:11;;;;;;;3.97;1.00;;;19.00;99.90;;;;;;6278461;22;20019;-84
2022/07/05 11:20:06;;;;;;;2.65;0.77;;;19.30;99.90;;;;;;6305238;22;20022;-83
2022/07/05 11:22:34;;;;;;;3.72;0.80;;;19.80;99.90;;;;;;6309069;22;20011;-88
2022/07/05 11:25:21;;;;;;;5.75;0.80;;;20.10;99.90;;;;;;6282190;22;20068;-85
2022/07/05 11:28:16;;;;;;;5.28;0.75;;;20.00;99.90;;;;;;6284926;22;20376;-87
2022/07/05 11:31:01;;;;;;;3.55;0.70;;;19.80;99.90;;;;;;6284819;22;20076;-86
2022/07/05 11:33:36;;;;;;;4.10;0.60;;;19.60;99.90;;;;;;6304002;22;20133;-84
2022/07/05 11:36:04;;;;;;;2.90;0.70;;;19.50;99.90;;;;;;6306936;22;20107;-88
2022/07/05 11:45:40;;;;;;;2.92;0.57;;;19.70;99.90;;;;;;6310876;22;20058;-88
2022/07/05 11:48:26;;;;;;;3.42;0.88;;;19.70;99.90;;;;;;6309551;22;20059;-90
2022/07/05 11:55:02;;;;;;;4.88;1.00;;;19.30;99.90;;;;;;6339902;22;20029;-91
2022/07/05 11:57:49;;;;;;;3.10;0.75;;;18.80;99.90;;;;;;6312323;22;20011;-89
2022/07/05 12:00:27;;;;;;;5.30;1.00;;;18.50;99.90;;;;;;6305893;22;20026;-88
2022/07/05 12:02:54;;;;;;;4.93;1.08;;;18.30;99.90;;;;;;6304677;22;20019;-90
2022/07/05 12:05:19;;;;;;;2.15;0.82;;;18.20;99.90;;;;;;6280157;22;20042;-85
2022/07/05 12:07:52;;;;;;;5.25;1.20;;;18.10;99.90;;;;;;6280389;22;20449;-86
2022/07/05 12:13:08;;;;;;;2.92;0.80;;;18.00;99.90;;;;;;6304038;22;20054;-86
2022/07/05 12:15:36;;;;;;;4.43;0.90;;;18.00;99.90;;;;;;6306916;22;20019;-85
2022/07/05 12:18:06;;;;;;;3.53;1.02;;;17.90;99.90;;;;;;6255078;22;20023;-85
2022/07/05 12:20:35;;;;;;;5.38;0.93;;;17.80;99.90;;;;;;6308115;22;20022;-84
2022/07/05 12:23:02;;;;;;;3.50;0.80;;;17.80;99.90;;;;;;6281385;22;20022;-85
2022/07/05 12:25:30;;;;;;;3.60;1.00;;;17.70;99.90;;;;;;6256023;22;20025;-85
2022/07/05 12:27:59;;;;;;;3.60;0.90;;;17.60;99.90;;;;;;6232607;22;20011;-91
2022/07/05 12:30:29;;;;;;;4.13;1.02;;;17.60;99.90;;;;;;6281572;22;20023;-85
2022/07/05 12:33:02;;;;;;;6.43;0.80;;;17.50;99.90;;;;;;6280092;22;20097;-85
2022/07/05 12:35:34;;;;;;;4.80;1.23;;;17.50;99.90;;;;;;6279449;22;20454;-86
2022/07/05 12:38:16;;;;;;;2.33;0.77;;;17.50;99.90;;;;;;6280613;22;20023;-88
2022/07/05 12:40:46;;;;;;;3.63;1.42;;;17.60;99.90;;;;;;6279979;22;20025;-89
2022/07/05 12:43:16;;;;;;;4.53;1.00;;;17.80;99.90;;;;;;6280697;22;20056;-90
2022/07/05 12:46:00;;;;;;;3.35;0.77;;;18.00;99.90;;;;;;6304130;22;20508;-86
2022/07/05 12:48:33;;;;;;;6.40;0.90;;;18.10;99.90;;;;;;6279425;22;20056;-88
2022/07/05 12:50:59;;;;;;;4.18;0.80;;;18.20;99.90;;;;;;6254145;22;20033;-88
2022/07/05 12:58:59;;;;;;;4.32;0.65;;;18.20;99.90;;;;;;6305277;22;20503;-89
2022/07/05 13:01:31;;;;;;;2.47;0.98;;;18.20;99.90;;;;;;6256101;22;20023;-87
2022/07/05 13:04:03;;;;;;;3.65;0.70;;;18.20;99.90;;;;;;6253855;22;20018;-89
2022/07/05 13:07:03;;;;;;;1.90;0.60;;;18.20;99.90;;;;;;6280767;22;20026;-89
2022/07/05 13:09:30;;;;;;;2.85;0.70;;;18.10;99.90;;;;;;6256360;22;20027;-84
2022/07/05 13:12:11;;;;;;;3.13;0.60;;;18.10;99.90;;;;;;6306995;22;20095;-87
2022/07/05 13:14:43;;;;;;;1.98;0.60;;;18.00;99.90;;;;;;6280576;22;20072;-85
2022/07/05 13:17:11;;;;;;;1.70;0.63;;;18.00;99.90;;;;;;6304846;22;20073;-84
2022/07/05 13:19:39;;;;;;;3.95;0.75;;;18.00;99.90;;;;;;6305926;22;20015;-87
2022/07/05 13:22:07;;;;;;;3.05;0.80;;;18.00;99.90;;;;;;6281587;22;20014;-89
2022/07/05 13:24:35;;;;;;;2.20;0.50;;;17.90;99.90;;;;;;6279276;22;20099;-83
2022/07/05 13:27:02;;;;;;;1.52;0.60;;;18.00;99.90;;;;;;6304611;22;20018;-81
2022/07/05 13:29:28;;;;;;;4.88;0.82;;;18.00;99.90;;;;;;6280645;22;20018;-86
2022/07/05 13:31:55;;;;;;;3.22;0.70;;;18.00;99.90;;;;;;6304988;22;20090;-85
2022/07/05 13:34:23;;;;;;;3.85;0.70;;;18.00;99.90;;;;;;6253845;22;20018;-85
2022/07/05 13:36:55;;;;;;;3.03;0.65;;;18.00;99.90;;;;;;6304648;22;20027;-88
2022/07/05 13:39:21;;;;;;;3.67;0.70;;;18.00;99.90;;;;;;6306597;22;20048;-93
2022/07/05 13:41:50;;;;;;;1.45;0.85;;;18.10;99.90;;;;;;6305209;22;20439;-85
2022/07/05 13:44:19;;;;;;;2.70;0.85;;;18.20;99.90;;;;;;6306078;22;20463;-91
2022/07/05 13:46:46;;;;;;;2.58;0.85;;;18.30;99.90;;;;;;6305920;22;20105;-89
2022/07/05 13:49:13;;;;;;;5.68;1.08;;;18.40;99.90;;;;;;6301318;22;20011;-89
2022/07/05 13:51:39;;;;;;;4.10;0.93;;;18.50;99.90;;;;;;6253695;22;20022;-87
2022/07/05 13:54:06;;;;;;;1.60;0.70;;;18.50;99.90;;;;;;6253788;22;20380;-86
2022/07/05 13:56:48;;;;;;;6.27;0.70;;;18.50;99.90;;;;;;6278612;22;20022;-86
2022/07/05 13:59:14;;;;;;;4.82;0.82;;;18.40;99.90;;;;;;6252580;22;20014;-89
2022/07/05 14:01:40;;;;;;;2.10;0.80;;;18.30;99.90;;;;;;6229536;22;20019;-87
2022/07/05 14:04:07;;;;;;;3.97;0.70;;;17.80;99.90;;;;;;6304789;22;20148;-85
2022/07/05 14:06:36;;;;;;;3.90;0.60;;;18.30;99.90;;;;;;6253762;22;20019;-85
2022/07/05 14:09:03;;;;;;;3.80;0.80;;;18.30;99.90;;;;;;6278998;22;20531;-83
2022/07/05 14:11:30;;;;;;;4.50;1.20;;;18.30;99.90;;;;;;6278253;22;20023;-85
2022/07/05 14:13:56;;;;;;;3.15;1.00;;;18.30;99.90;;;;;;6254885;22;20014;-90
2022/07/05 14:16:23;;;;;;;4.30;0.90;;;18.40;99.90;;;;;;6253516;22;20376;-85
2022/07/05 14:18:52;;;;;;;3.03;0.75;;;18.40;99.90;;;;;;6304501;22;20433;-86
2022/07/05 14:21:18;;;;;;;4.05;0.98;;;18.40;99.90;;;;;;6307266;22;20454;-87
2022/07/05 14:24:19;;;;;;;4.22;1.00;;;18.50;99.90;;;;;;6280547;22;20196;-84
2022/07/05 14:26:40;;;;;;;3.70;1.05;;;18.40;99.90;;;;;;6268207;22;20048;-88
2022/07/05 14:29:07;;;;;;;2.70;0.93;;;18.30;99.90;;;;;;6278852;22;20030;-92
2022/07/05 14:31:33;;;;;;;6.07;0.70;;;18.30;99.90;;;;;;6277157;22;20331;-83
2022/07/05 14:33:59;;;;;;;2.80;0.90;;;18.30;99.90;;;;;;6252672;22;20027;-84
2022/07/05 14:36:26;;;;;;;;;;;18.40;99.90;;;;;;6256770;22;20041;-87
2022/07/05 14:38:52;;;;;;;4.38;0.60;;;18.50;99.90;;;;;;6305633;22;20143;-86
2022/07/05 14:41:19;;;;;;;2.72;0.82;;;18.60;99.90;;;;;;6254496;22;20410;-86
2022/07/05 14:43:46;;;;;;;4.68;0.90;;;18.60;99.90;;;;;;6279781;22;20019;-88
2022/07/05 14:46:17;;;;;;;1.75;0.68;;;18.50;99.90;;;;;;6277211;22;20019;-87
2022/07/05 14:48:45;;;;;;;2.15;0.50;;;18.40;99.90;;;;;;6278990;22;20083;-87
2022/07/05 14:51:11;;;;;;;2.25;0.70;;;18.30;99.90;;;;;;6227442;22;20011;-86
2022/07/05 14:53:37;;;;;;;3.77;0.67;;;18.20;99.90;;;;;;6281218;22;20018;-89
2022/07/05 14:56:03;;;;;;;2.75;0.70;;;18.00;99.90;;;;;;6279364;22;20456;-88
2022/07/05 14:58:48;;;;;;;2.75;0.98;;;18.00;99.90;;;;;;6281412;22;20501;-88
2022/07/05 15:01:15;;;;;;;5.32;0.77;;;18.00;99.90;;;;;;6256938;22;20015;-85
2022/07/05 15:03:42;;;;;;;4.45;0.50;;;17.90;99.90;;;;;;6307954;22;20048;-89
2022/07/05 15:06:08;;;;;;;3.53;0.60;;;17.90;99.90;;;;;;6231619;22;20019;-86
2022/07/05 15:08:35;;;;;;;1.90;0.77;;;17.80;99.90;;;;;;6281866;22;20029;-88
2022/07/05 15:11:02;;;;;;;3.37;0.60;;;17.80;99.90;;;;;;6307264;22;20025;-86
2022/07/05 15:13:28;;;;;;;3.22;0.60;;;17.80;99.90;;;;;;6255289;22;20019;-87
2022/07/05 15:15:56;;;;;;;3.47;0.70;;;17.70;99.90;;;;;;6280567;22;20097;-86
2022/07/05 15:18:23;;;;;;;3.97;0.75;;;17.70;99.90;;;;;;6278634;22;20025;-85
2022/07/05 15:20:54;;;;;;;2.33;0.70;;;17.70;99.90;;;;;;6280382;22;20023;-90
2022/07/05 15:23:20;;;;;;;3.88;0.60;;;17.70;99.90;;;;;;6280394;22;20015;-90
2022/07/05 15:25:47;;;;;;;2.25;0.77;;;17.60;99.90;;;;;;6279942;22;20019;-86
2022/07/05 15:28:15;;;;;;;6.87;1.10;;;17.60;99.90;;;;;;6253714;22;20015;-85
2022/07/05 15:30:41;;;;;;;3.58;0.80;;;17.50;99.90;;;;;;6254392;22;20015;-86
2022/07/05 15:33:07;;;;;;;4.75;0.93;;;17.50;99.90;;;;;;6279508;22;20018;-88
2022/07/05 15:35:33;;;;;;;4.78;0.90;;;17.40;99.90;;;;;;6279286;22;20022;-86
2022/07/05 15:38:00;;;;;;;2.00;0.70;;;17.30;99.90;;;;;;6280566;22;20023;-85
2022/07/05 15:40:28;;;;;;;2.75;0.70;;;17.30;99.90;;;;;;6254000;22;20011;-86
2022/07/05 15:42:55;;;;;;;4.03;1.00;;;17.30;99.90;;;;;;6229067;22;20549;-88
2022/07/05 15:45:21;;;;;;;3.08;0.63;;;17.30;99.90;;;;;;6252701;22;20014;-86
2022/07/05 15:47:47;;;;;;;4.90;0.60;;;17.30;99.90;;;;;;6304643;22;20022;-87
2022/07/05 15:50:13;;;;;;;4.07;0.70;;;17.40;99.90;;;;;;6279355;22;20019;-89
2022/07/05 15:52:40;;;;;;;1.63;0.57;;;17.50;99.90;;;;;;6278086;22;20037;-87
2022/07/05 15:55:07;;;;;;;3.75;0.60;;;17.60;99.90;;;;;;6250115;22;20102;-89
2022/07/05 15:57:34;;;;;;;1.70;0.68;;;17.70;99.90;;;;;;6254121;22;20023;-85
2022/07/05 16:00:00;;;;;;;;;;;17.80;99.90;;;;;;6305927;22;20019;-85
2022/07/05 16:02:26;;;;;;;4.22;1.00;;;17.80;99.90;;;;;;6304857;22;19911;-83
2022/07/05 16:04:56;;;;;;;2.72;0.60;;;17.80;99.90;;;;;;6255069;22;20019;-84
2022/07/05 16:07:23;;;;;;;1.52;0.63;;;17.70;99.90;;;;;;6280366;22;20014;-84
2022/07/05 16:09:50;;;;;;;3.53;0.85;;;17.70;99.90;;;;;;6305456;22;20443;-88
2022/07/05 16:12:17;;;;;;;0.75;0.45;;;17.70;99.90;;;;;;6255670;22;20067;-88
2022/07/05 16:14:43;;;;;;;2.65;0.60;;;17.70;99.90;;;;;;6280195;22;20051;-88
2022/07/05 16:17:09;;;;;;;4.18;0.52;;;17.70;99.90;;;;;;6254946;22;20022;-83
2022/07/05 16:19:35;;;;;;;5.10;0.70;;;17.60;99.90;;;;;;6254413;22;20443;-90
2022/07/05 16:22:01;;;;;;;1.52;0.60;;;17.70;99.90;;;;;;6278471;22;20018;-89
2022/07/05 16:24:27;;;;;;;3.20;0.52;;;17.70;99.90;;;;;;6281061;22;20128;-87
2022/07/05 16:26:56;;;;;;;3.00;0.70;;;17.70;99.90;;;;;;6254151;22;20073;-84
2022/07/05 16:29:23;;;;;;;2.85;0.60;;;17.70;99.90;;;;;;6254739;22;20077;-86
2022/07/05 16:31:51;;;;;;;3.55;0.60;;;17.60;99.90;;;;;;6278789;22;20017;-88
2022/07/05 16:34:21;;;;;;;3.15;0.77;;;17.60;99.90;;;;;;6280249;22;20014;-83
2022/07/05 16:36:47;;;;;;;3.72;0.70;;;17.50;99.90;;;;;;6279611;22;20049;-83
2022/07/05 16:39:13;;;;;;;3.13;0.85;;;17.50;99.90;;;;;;6254029;22;20025;-86
2022/07/05 16:41:39;;;;;;;3.08;0.60;;;17.60;99.90;;;;;;6306602;22;20030;-84
2022/07/05 16:44:06;;;;;;;4.78;1.00;;;17.60;99.90;;;;;;6278509;22;20018;-86
2022/07/05 16:46:32;;;;;;;3.05;0.80;;;17.60;99.90;;;;;;6305972;22;20014;-85
2022/07/05 16:48:58;;;;;;;1.35;0.40;;;17.50;99.90;;;;;;6253242;22;20011;-90
2022/07/05 16:51:25;;;;;;;3.45;0.73;;;17.40;99.90;;;;;;6280786;22;20019;-82
2022/07/05 16:53:54;;;;;;;2.78;0.63;;;17.50;99.90;;;;;;6305086;22;20034;-83
2022/07/05 16:56:21;;;;;;;2.50;0.50;;;17.50;99.90;;;;;;6304813;22;20049;-83
2022/07/05 16:58:52;;;;;;;3.80;0.60;;;17.50;99.90;;;;;;6305742;22;20215;-87
2022/07/05 17:01:18;;;;;;;2.90;0.60;;;17.50;99.90;;;;;;6254267;22;20057;-83
2022/07/05 17:03:47;;;;;;;2.60;0.60;;;17.50;99.90;;;;;;6279159;22;20402;-83
2022/07/05 17:06:14;;;;;;;3.95;0.60;;;17.50;99.90;;;;;;6277513;22;20433;-82
2022/07/05 17:08:42;;;;;;;5.15;0.82;;;17.50;99.90;;;;;;6305470;22;20068;-81
2022/07/05 17:11:12;;;;;;;3.17;0.60;;;17.50;99.90;;;;;;6254339;22;20014;-84
2022/07/05 17:13:44;;;;;;;3.63;0.65;;;17.50;99.90;;;;;;6277130;22;20025;-85
2022/07/05 17:16:11;;;;;;;2.00;0.50;;;17.50;99.90;;;;;;6277583;22;20030;-84
2022/07/05 17:18:40;;;;;;;1.40;0.60;;;17.50;99.90;;;;;;6302294;22;20021;-83
2022/07/05 17:21:12;;;;;;;3.42;0.85;;;17.40;99.90;;;;;;6279392;22;20023;-84
2022/07/05 17:23:47;;;;;;;1.73;0.75;;;17.30;99.90;;;;;;6280142;22;20094;-81
2022/07/05 17:26:15;;;;;;;3.17;0.70;;;17.20;99.90;;;;;;6306031;22;20046;-83
2022/07/05 17:28:45;;;;;;;1.85;0.60;;;17.20;99.90;;;;;;6305653;22;20019;-86
2022/07/05 17:31:12;;;;;;;4.47;0.75;;;17.20;99.90;;;;;;6254397;22;20011;-83
2022/07/05 17:33:39;;;;;;;2.00;0.50;;;17.20;99.90;;;;;;6278523;22;20022;-83
2022/07/05 17:36:06;;;;;;;3.80;0.65;;;17.00;99.90;;;;;;6303056;22;20064;-83
2022/07/05 17:38:32;;;;;;;4.50;0.80;;;17.00;99.90;;;;;;6299875;22;20015;-80
2022/07/05 17:40:58;;;;;;;2.70;0.75;;;17.00;99.90;;;;;;6300492;22;20026;-84
2022/07/05 17:43:24;;;;;;;6.55;1.13;;;17.00;99.90;;;;;;6277819;22;20046;-83
2022/07/05 17:45:50;;;;;;;5.47;0.77;;;17.10;99.90;;;;;;6275630;22;20019;-83
2022/07/05 17:48:17;;;;;;;3.50;0.70;;;17.10;99.90;;;;;;6304053;22;20098;-83
2022/07/05 17:50:43;;;;;;;3.55;0.75;;;17.10;99.90;;;;;;6302431;22;20151;-82
2022/07/05 17:53:10;;;;;;;4.05;0.68;;;17.20;99.90;;;;;;6303721;22;20015;-82
2022/07/05 17:55:36;;;;;;;2.38;0.85;;;17.10;99.90;;;;;;6276554;22;20090;-82
2022/07/05 17:58:05;;;;;;;2.75;0.80;;;17.10;99.90;;;;;;6249107;22;20568;-81
2022/07/05 18:00:34;;;;;;;2.60;0.77;;;17.00;99.90;;;;;;6278886;22;20572;-84
2022/07/05 18:03:01;;;;;;;4.05;0.60;;;17.00;99.90;;;;;;6305976;22;20015;-85
2022/07/05 18:05:29;;;;;;;3.20;0.80;;;17.00;99.90;;;;;;6307108;22;20056;-88
2022/07/05 18:07:57;;;;;;;2.55;0.55;;;17.00;99.90;;;;;;6331632;22;20025;-84
2022/07/05 18:10:28;;;;;;;3.00;0.75;;;16.90;99.90;;;;;;6279099;22;20058;-84
2022/07/05 18:12:55;;;;;;;5.47;0.90;;;16.90;99.90;;;;;;6301908;22;20030;-83
2022/07/05 18:15:21;;;;;;;3.60;0.60;;;16.80;99.90;;;;;;6250829;22;20088;-85
2022/07/05 18:17:47;;;;;;;3.23;0.63;;;16.80;99.90;;;;;;6275136;22;20110;-84
2022/07/05 18:20:13;;;;;;;3.42;0.90;;;16.70;99.90;;;;;;6275413;22;20484;-83
2022/07/05 18:22:39;;;;;;;3.58;0.85;;;16.70;99.90;;;;;;6249312;22;20033;-82
2022/07/05 18:25:06;;;;;;;4.75;0.95;;;16.70;99.90;;;;;;6250412;22;20026;-84
2022/07/05 18:27:32;;;;;;;3.58;0.60;;;16.60;99.90;;;;;;6249894;22;20019;-85
2022/07/05 18:29:58;;;;;;;5.03;0.95;;;16.60;99.90;;;;;;6277186;22;20014;-81
2022/07/05 18:32:24;;;;;;;2.60;0.70;;;16.60;99.90;;;;;;6224690;22;20381;-84
2022/07/05 18:34:52;;;;;;;3.33;0.90;;;16.60;99.90;;;;;;6279867;22;20395;-83
2022/07/05 18:37:18;;;;;;;3.70;0.82;;;16.60;99.90;;;;;;6251013;22;20018;-82
2022/07/05 18:39:44;;;;;;;4.03;0.95;;;16.50;99.90;;;;;;6280372;22;20062;-83
2022/07/05 18:42:11;;;;;;;3.58;0.98;;;16.50;99.90;;;;;;6277467;22;20025;-80
2022/07/05 18:44:38;;;;;;;4.68;1.00;;;16.50;99.90;;;;;;6281357;22;20019;-84
2022/07/05 18:47:05;;;;;;;3.60;0.90;;;16.40;99.90;;;;;;6282969;22;20015;-86
2022/07/05 18:49:31;;;;;;;5.18;1.10;;;16.40;99.90;;;;;;6306610;22;20055;-83
2022/07/05 18:51:58;;;;;;;3.08;0.73;;;16.40;99.90;;;;;;6280234;22;20018;-88
2022/07/05 18:54:24;;;;;;;5.65;0.80;;;16.40;99.90;;;;;;6282589;22;20019;-89
2022/07/05 18:56:49;;;;;;;4.13;0.80;;;16.40;99.90;;;;;;6257677;22;20026;-91
2022/07/05 18:59:17;;;;;;;3.08;0.80;;;16.30;99.90;;;;;;6256879;22;20023;-89
2022/07/05 19:01:44;;;;;;;3.63;0.77;;;16.30;99.90;;;;;;6233482;22;20054;-89
2022/07/05 19:04:09;;;;;;;5.38;0.90;;;16.30;99.90;;;;;;6232322;22;20021;-88
2022/07/05 19:15:31;;;;;;;4.22;0.70;;;16.00;99.90;;;;;;6288532;22;20025;-88
2022/07/05 19:17:57;;;;;;;5.43;0.88;;;16.00;99.90;;;;;;6267615;22;20097;-86
2022/07/05 19:20:24;;;;;;;5.00;0.80;;;15.90;99.90;;;;;;6282518;22;20131;-85
2022/07/05 19:22:52;;;;;;;3.42;0.77;;;15.90;99.90;;;;;;6309591;22;20107;-89
2022/07/05 19:25:21;;;;;;;1.50;0.52;;;15.80;99.90;;;;;;6308944;22;20075;-85
2022/07/05 19:27:47;;;;;;;2.78;0.60;;;15.80;99.90;;;;;;6257891;22;20011;-82
2022/07/05 19:30:13;;;;;;;1.92;0.77;;;15.80;99.90;;;;;;6281292;22;20027;-80
2022/07/05 19:32:39;;;;;;;4.05;0.70;;;15.70;99.90;;;;;;6279980;22;20023;-87
2022/07/05 19:35:07;;;;;;;2.17;0.57;;;15.70;99.90;;;;;;6306138;22;20014;-82
2022/07/05 19:37:33;;;;;;;3.22;0.73;;;15.60;99.90;;;;;;6306693;22;20023;-87
2022/07/05 19:40:00;;;;;;;4.60;0.80;;;15.60;99.90;;;;;;6265818;22;20025;-86
2022/07/05 19:42:26;;;;;;;4.18;0.50;;;15.60;99.90;;;;;;6282236;22;20076;-88
2022/07/05 19:44:53;;;;;;;1.95;0.88;;;15.60;99.90;;;;;;6303915;22;20019;-89
2022/07/05 19:47:19;;;;;;;3.50;0.70;;;15.50;99.90;;;;;;6263144;22;20038;-89
2022/07/05 19:49:45;;;;;;;4.60;0.90;;;15.50;99.90;;;;;;6299897;22;20011;-88
2022/07/05 19:52:11;;;;;;;4.00;0.90;;;15.50;99.90;;;;;;6281894;22;20018;-87
2022/07/05 19:54:37;;;;;;;4.68;0.80;;;15.50;99.90;;;;;;6283367;22;20030;-89
2022/07/05 19:57:03;;;;;;;5.15;1.00;;;15.50;99.90;;;;;;6283619;22;20131;-89
2022/07/05 19:59:29;;;;;;;7.72;0.90;;;15.50;99.90;;;;;;6283496;22;20030;-88
2022/07/05 20:01:56;;;;;;;5.72;1.10;;;15.50;99.90;;;;;;6279563;22;20014;-86
2022/07/05 20:04:22;;;;;;;4.25;0.93;;;15.40;99.90;;;;;;6280375;22;20552;-87
2022/07/05 20:06:48;;;;;;;5.15;1.13;;;15.40;99.90;;;;;;6308441;22;20019;-87
2022/07/05 20:09:16;;;;;;;5.10;0.80;;;15.30;99.90;;;;;;6284162;22;20011;-93
2022/07/05 20:11:42;;;;;;;2.67;0.80;;;15.30;99.90;;;;;;6283152;22;20093;-90
2022/07/05 20:14:12;;;;;;;3.35;1.00;;;15.20;99.90;;;;;;6308233;22;20029;-86
2022/07/05 20:16:56;;;;;;;6.50;1.05;;;15.20;99.90;;;;;;6306588;22;20025;-88
2022/07/05 20:19:23;;;;;;;5.45;0.75;;;15.00;99.90;;;;;;6336887;22;20019;-92
2022/07/05 20:22:10;;;;;;;4.10;0.90;;;15.00;99.90;;;;;;6309288;22;20011;-91
2022/07/05 20:24:36;;;;;;;4.53;0.90;;;15.00;99.90;;;;;;6307863;22;20136;-90
2022/07/05 20:27:02;;;;;;;6.20;0.77;;;15.00;99.90;;;;;;6255998;22;20022;-87
2022/07/05 20:29:28;;;;;;;4.55;0.90;;;15.00;99.90;;;;;;6307562;22;20452;-87
2022/07/05 20:31:55;;;;;;;4.22;0.80;;;15.00;99.90;;;;;;6289981;22;20307;-88
2022/07/05 20:34:21;;;;;;;5.28;0.98;;;15.00;99.90;;;;;;6276488;22;20046;-85
2022/07/05 20:37:06;;;;;;;3.40;0.75;;;15.00;99.90;;;;;;6306967;22;20022;-90
2022/07/05 20:39:32;;;;;;;3.80;0.70;;;15.00;99.90;;;;;;6255460;22;20022;-90
2022/07/05 20:41:58;;;;;;;2.92;0.88;;;15.00;99.90;;;;;;6304703;22;20025;-84
2022/07/05 20:44:28;;;;;;;2.38;0.80;;;15.00;99.90;;;;;;6334668;22;20106;-84
2022/07/05 20:46:55;;;;;;;2.95;0.80;;;15.00;99.90;;;;;;6307404;22;20064;-93
2022/07/05 20:49:21;;;;;;;4.18;0.75;;;15.00;99.90;;;;;;6278062;22;20026;-83
2022/07/05 20:51:49;;;;;;;4.22;1.00;;;15.00;99.90;;;;;;6303394;22;20011;-84
2022/07/05 20:54:16;;;;;;;4.20;0.73;;;15.00;99.90;;;;;;6308109;22;20075;-89
2022/07/05 20:56:42;;;;;;;4.13;1.25;;;15.00;99.90;;;;;;6258562;22;20018;-88
2022/07/05 20:59:10;;;;;;;2.78;0.75;;;15.00;99.90;;;;;;6308860;22;20302;-84
2022/07/05 21:01:37;;;;;;;4.50;0.98;;;15.00;99.90;;;;;;6280138;22;20451;-89
2022/07/05 21:04:05;;;;;;;3.80;0.88;;;15.00;99.90;;;;;;6280018;22;20022;-87
2022/07/05 21:06:31;;;;;;;2.40;0.88;;;14.90;99.90;;;;;;6279600;22;20014;-84
2022/07/05 21:08:57;;;;;;;4.57;1.10;;;14.90;99.90;;;;;;6229112;22;20402;-84
2022/07/05 21:11:23;;;;;;;3.08;0.90;;;14.90;99.90;;;;;;6305781;22;20027;-88
2022/07/05 21:13:49;;;;;;;2.45;0.70;;;14.90;99.90;;;;;;6252822;22;20128;-86
2022/07/05 21:16:15;;;;;;;7.40;0.85;;;14.90;99.90;;;;;;6252666;22;20022;-85
2022/07/05 21:18:42;;;;;;;4.63;1.10;;;14.90;99.90;;;;;;6277775;22;20045;-88
2022/07/05 21:21:08;;;;;;;4.82;1.15;;;14.90;99.90;;;;;;6227171;22;20026;-87
2022/07/05 21:23:36;;;;;;;3.17;1.10;;;14.90;99.90;;;;;;6305490;22;20015;-85
2022/07/05 21:26:02;;;;;;;;;;;14.90;99.90;;;;;;6280074;22;20027;-82
2022/07/05 21:28:28;;;;;;;4.45;0.82;;;14.90;99.90;;;;;;6279793;22;19925;-86
2022/07/05 21:31:14;;;;;;;5.82;1.17;;;14.80;99.90;;;;;;6304707;22;20516;-82
2022/07/05 21:33:59;;;;;;;5.55;1.20;;;14.80;99.90;;;;;;6281137;22;20030;-87
2022/07/05 21:36:25;;;;;;;3.13;0.70;;;14.80;99.90;;;;;;6280189;22;20022;-89
2022/07/05 21:38:51;;;;;;;3.15;0.98;;;14.80;99.90;;;;;;6281955;22;20082;-89
2022/07/05 21:41:18;;;;;;;4.25;0.75;;;14.80;99.90;;;;;;6280980;22;20061;-89
2022/07/05 21:43:44;;;;;;;5.68;1.10;;;14.80;99.90;;;;;;6255484;22;20014;-85
2022/07/05 21:46:10;;;;;;;4.10;1.00;;;14.70;99.90;;;;;;6279678;22;20037;-91
2022/07/05 21:48:37;;;;;;;3.85;1.20;;;14.70;99.90;;;;;;6279602;22;20022;-88
2022/07/05 21:51:04;;;;;;;4.60;1.00;;;14.80;99.90;;;;;;6278623;22;20023;-87
2022/07/05 21:53:29;;;;;;;7.70;1.20;;;14.70;99.90;;;;;;6305599;22;20533;-85
2022/07/05 21:55:55;;;;;;;3.47;0.77;;;14.80;99.90;;;;;;6254374;22;20061;-87
2022/07/05 21:58:21;;;;;;;5.68;0.90;;;14.80;99.90;;;;;;6278693;22;20054;-85
2022/07/05 22:06:17;;;;;;;4.50;1.00;;;14.80;99.90;;;;;;6303177;22;20019;-86
2022/07/05 22:08:43;;;;;;;3.70;1.00;;;14.80;99.90;;;;;;6278147;22;20026;-84
2022/07/05 22:13:53;;;;;;;3.97;0.98;;;14.80;99.90;;;;;;6306141;22;20329;-85
2022/07/05 22:16:19;;;;;;;6.30;1.10;;;14.80;99.90;;;;;;6304032;22;20048;-84
2022/07/05 22:18:45;;;;;;;5.32;0.90;;;14.80;99.90;;;;;;6304206;22;20098;-85
2022/07/05 22:21:11;;;;;;;5.07;1.15;;;14.80;99.90;;;;;;6279536;22;20040;-84
2022/07/05 22:23:37;;;;;;;4.75;1.45;;;14.80;99.90;;;;;;6254745;22;20101;-84
2022/07/05 22:26:03;;;;;;;7.85;1.30;;;14.90;99.90;;;;;;6279674;22;20018;-85
2022/07/05 22:28:29;;;;;;;4.95;1.00;;;14.90;99.90;;;;;;6279635;22;20023;-86
2022/07/05 22:30:55;;;;;;;3.83;1.20;;;14.90;99.90;;;;;;6279649;22;20064;-86
2022/07/05 22:33:21;;;;;;;3.85;0.90;;;14.80;99.90;;;;;;6278184;22;20015;-85
2022/07/05 22:35:47;;;;;;;4.65;0.80;;;14.80;99.90;;;;;;6278665;22;20530;-85
2022/07/05 22:38:12;;;;;;;3.28;0.80;;;14.80;99.90;;;;;;6280089;22;20018;-86
2022/07/05 22:40:38;;;;;;;5.30;1.33;;;14.90;99.90;;;;;;6280031;22;20098;-86
2022/07/05 22:43:04;;;;;;;3.92;0.85;;;14.80;99.90;;;;;;6253961;22;20025;-85
2022/07/05 22:45:31;;;;;;;3.10;0.90;;;14.60;99.90;;;;;;6253077;22;20601;-86
2022/07/05 22:47:57;;;;;;;3.05;0.63;;;14.80;99.90;;;;;;6253818;22;20030;-87
2022/07/05 22:50:23;;;;;;;5.82;1.05;;;15.00;99.90;;;;;;6278877;22;20023;-84
2022/07/05 22:52:49;;;;;;;7.28;1.20;;;15.00;99.90;;;;;;6305647;22;20090;-86
2022/07/05 22:55:15;;;;;;;2.70;0.80;;;15.00;99.90;;;;;;6254607;22;20080;-87
2022/07/05 22:57:41;;;;;;;5.00;1.10;;;15.10;99.90;;;;;;6254377;22;20018;-84
2022/07/05 23:00:08;;;;;;;5.40;0.95;;;14.90;99.90;;;;;;6279370;22;20011;-86
2022/07/05 23:02:34;;;;;;;;;;;14.60;99.90;;;;;;6255406;22;20021;-86
2022/07/05 23:05:00;;;;;;;8.45;1.02;;;14.90;99.90;;;;;;6304051;22;19989;-86
2022/07/05 23:07:26;;;;;;;4.03;1.00;;;15.20;99.90;;;;;;6229145;22;20045;-87
2022/07/05 23:09:52;;;;;;;3.65;1.05;;;14.90;99.90;;;;;;6305908;22;20019;-87
2022/07/05 23:12:18;;;;;;;5.63;1.00;;;15.00;99.90;;;;;;6279719;22;20017;-88
2022/07/05 23:14:44;;;;;;;4.05;0.88;;;15.00;99.90;;;;;;6255032;22;20019;-90
2022/07/05 23:17:10;;;;;;;2.88;1.02;;;14.90;99.90;;;;;;6256979;22;20019;-87
2022/07/05 23:19:36;;;;;;;4.70;0.93;;;15.00;99.90;;;;;;6255917;22;20018;-85
2022/07/05 23:22:02;;;;;;;4.38;1.13;;;15.10;99.90;;;;;;6255667;22;20602;-88
2022/07/05 23:27:12;;;;;;;5.95;0.90;;;14.90;99.90;;;;;;6305020;22;20025;-88
2022/07/05 23:29:38;;;;;;;4.50;1.02;;;14.90;99.90;;;;;;6278417;22;20097;-86
2022/07/05 23:32:05;;;;;;;5.32;1.02;;;14.90;99.90;;;;;;6279502;22;20554;-88
2022/07/05 23:34:30;;;;;;;3.80;0.80;;;14.90;99.90;;;;;;6279150;22;20011;-87
2022/07/05 23:36:58;;;;;;;3.47;0.95;;;14.90;99.90;;;;;;6256146;22;20019;-85
2022/07/05 23:39:24;;;;;;;4.90;1.10;;;14.90;99.90;;;;;;6309275;22;20340;-91
2022/07/05 23:41:50;;;;;;;5.05;1.10;;;14.70;99.90;;;;;;6257940;22;20029;-90
2022/07/05 23:44:21;;;;;;;2.78;0.93;;;14.70;99.90;;;;;;6311492;22;20015;-94
2022/07/05 23:46:47;;;;;;;3.50;1.35;;;14.60;99.90;;;;;;6259443;22;20097;-88
2022/07/05 23:49:13;;;;;;;3.60;1.05;;;14.40;99.90;;;;;;6283092;22;20019;-89
2022/07/05 23:51:44;;;;;;;2.08;0.88;;;14.30;99.90;;;;;;6283263;22;20018;-90
2022/07/05 23:54:10;;;;;;;3.85;0.85;;;14.30;99.90;;;;;;6282420;22;20050;-88
2022/07/05 23:56:38;;;;;;;2.92;0.70;;;14.30;99.90;;;;;;6282183;22;20312;-87
2022/07/05 23:59:04;;;;;;;4.10;0.60;;;14.30;99.90;;;;;;6308120;22;20022;-84
